sensor_id;sensor_type;location;lat;lon;timestamp;temperature;humidity
11214;DHT22;5664;48.606;13.456;2023-04-29T00:01:04;22.20;54.30
11214;DHT22;5664;48.606;13.456;2023-04-29T00:03:30;22.20;54.30
11214;DHT22;5664;48.606;13.456;2023-04-29T00:05:57;22.20;54.30
11214;DHT22;5664;48.606;13.456;2023-04-29T00:08:22;22.20;54.30
11214;DHT22;5664;48.606;13.456;2023-04-29T00:10:48;22.20;54.20
11214;DHT22;5664;48.606;13.456;2023-04-29T00:13:14;22.20;54.20
11214;DHT22;5664;48.606;13.456;2023-04-29T00:15:40;22.20;54.20
11214;DHT22;5664;48.606;13.456;2023-04-29T00:18:05;22.20;54.20
11214;DHT22;5664;48.606;13.456;2023-04-29T00:20:31;22.20;54.20
11214;DHT22;5664;48.606;13.456;2023-04-29T00:22:57;22.20;54.20
11214;DHT22;5664;48.606;13.456;2023-04-29T00:25:22;22.20;54.20
11214;DHT22;5664;48.606;13.456;2023-04-29T00:27:48;22.20;54.30
11214;DHT22;5664;48.606;13.456;2023-04-29T00:30:13;22.20;54.30
11214;DHT22;5664;48.606;13.456;2023-04-29T00:32:39;22.20;54.30
11214;DHT22;5664;48.606;13.456;2023-04-29T00:35:05;22.20;54.30
11214;DHT22;5664;48.606;13.456;2023-04-29T00:37:30;22.20;54.30
11214;DHT22;5664;48.606;13.456;2023-04-29T00:39:56;22.10;54.30
11214;DHT22;5664;48.606;13.456;2023-04-29T00:42:21;22.10;54.30
11214;DHT22;5664;48.606;13.456;2023-04-29T00:44:47;22.10;54.30
11214;DHT22;5664;48.606;13.456;2023-04-29T00:47:12;22.20;54.30
11214;DHT22;5664;48.606;13.456;2023-04-29T00:49:38;22.10;54.30
11214;DHT22;5664;48.606;13.456;2023-04-29T00:52:03;22.10;54.30
11214;DHT22;5664;48.606;13.456;2023-04-29T00:54:29;22.10;54.40
11214;DHT22;5664;48.606;13.456;2023-04-29T00:56:54;22.10;54.40
11214;DHT22;5664;48.606;13.456;2023-04-29T00:59:20;22.10;54.40
11214;DHT22;5664;48.606;13.456;2023-04-29T01:01:46;22.10;55.00
11214;DHT22;5664;48.606;13.456;2023-04-29T01:04:12;22.10;54.40
11214;DHT22;5664;48.606;13.456;2023-04-29T01:06:48;22.10;54.40
11214;DHT22;5664;48.606;13.456;2023-04-29T01:12:31;22.10;54.40
11214;DHT22;5664;48.606;13.456;2023-04-29T01:14:32;22.10;54.40
11214;DHT22;5664;48.606;13.456;2023-04-29T01:17:10;22.10;54.40
11214;DHT22;5664;48.606;13.456;2023-04-29T01:22:11;22.10;54.50
11214;DHT22;5664;48.606;13.456;2023-04-29T01:24:39;22.10;54.50
11214;DHT22;5664;48.606;13.456;2023-04-29T01:27:09;22.10;54.50
11214;DHT22;5664;48.606;13.456;2023-04-29T01:29:50;22.10;54.50
11214;DHT22;5664;48.606;13.456;2023-04-29T01:32:18;22.10;54.50
11214;DHT22;5664;48.606;13.456;2023-04-29T01:34:59;22.00;54.50
11214;DHT22;5664;48.606;13.456;2023-04-29T01:37:29;21.80;54.40
11214;DHT22;5664;48.606;13.456;2023-04-29T01:40:18;22.10;54.50
11214;DHT22;5664;48.606;13.456;2023-04-29T01:42:46;22.10;54.50
11214;DHT22;5664;48.606;13.456;2023-04-29T01:45:14;22.00;54.50
11214;DHT22;5664;48.606;13.456;2023-04-29T01:47:40;22.00;54.50
11214;DHT22;5664;48.606;13.456;2023-04-29T01:50:06;22.00;54.50
11214;DHT22;5664;48.606;13.456;2023-04-29T01:52:31;22.00;54.50
11214;DHT22;5664;48.606;13.456;2023-04-29T01:54:57;22.10;54.60
11214;DHT22;5664;48.606;13.456;2023-04-29T01:57:22;22.00;54.50
11214;DHT22;5664;48.606;13.456;2023-04-29T01:59:48;22.00;54.50
11214;DHT22;5664;48.606;13.456;2023-04-29T02:02:13;22.00;54.50
11214;DHT22;5664;48.606;13.456;2023-04-29T02:04:45;22.00;54.60
11214;DHT22;5664;48.606;13.456;2023-04-29T02:07:10;22.00;54.60
11214;DHT22;5664;48.606;13.456;2023-04-29T02:09:36;22.00;54.60
11214;DHT22;5664;48.606;13.456;2023-04-29T02:12:01;22.00;54.70
11214;DHT22;5664;48.606;13.456;2023-04-29T02:14:28;22.00;54.70
11214;DHT22;5664;48.606;13.456;2023-04-29T02:16:54;21.90;54.60
11214;DHT22;5664;48.606;13.456;2023-04-29T02:19:20;21.90;54.70
11214;DHT22;5664;48.606;13.456;2023-04-29T02:21:45;21.90;54.70
11214;DHT22;5664;48.606;13.456;2023-04-29T02:24:11;21.90;54.80
11214;DHT22;5664;48.606;13.456;2023-04-29T02:26:36;21.90;54.80
11214;DHT22;5664;48.606;13.456;2023-04-29T02:29:02;21.90;54.80
11214;DHT22;5664;48.606;13.456;2023-04-29T02:31:28;21.90;54.80
11214;DHT22;5664;48.606;13.456;2023-04-29T02:33:53;21.90;54.80
11214;DHT22;5664;48.606;13.456;2023-04-29T02:36:19;21.90;54.80
11214;DHT22;5664;48.606;13.456;2023-04-29T02:38:44;21.90;54.80
11214;DHT22;5664;48.606;13.456;2023-04-29T02:41:10;21.90;54.90
11214;DHT22;5664;48.606;13.456;2023-04-29T02:43:40;21.90;54.80
11214;DHT22;5664;48.606;13.456;2023-04-29T02:46:05;21.90;54.80
11214;DHT22;5664;48.606;13.456;2023-04-29T02:48:31;21.90;54.80
11214;DHT22;5664;48.606;13.456;2023-04-29T02:50:56;21.90;54.80
11214;DHT22;5664;48.606;13.456;2023-04-29T02:53:22;21.90;54.80
11214;DHT22;5664;48.606;13.456;2023-04-29T02:55:47;21.90;54.70
11214;DHT22;5664;48.606;13.456;2023-04-29T02:58:13;21.90;54.70
11214;DHT22;5664;48.606;13.456;2023-04-29T03:00:39;22.00;54.70
11214;DHT22;5664;48.606;13.456;2023-04-29T03:03:05;22.00;54.70
11214;DHT22;5664;48.606;13.456;2023-04-29T03:05:30;22.00;54.70
11214;DHT22;5664;48.606;13.456;2023-04-29T03:07:56;22.00;54.60
11214;DHT22;5664;48.606;13.456;2023-04-29T03:10:21;22.00;54.60
11214;DHT22;5664;48.606;13.456;2023-04-29T03:12:47;22.00;54.60
11214;DHT22;5664;48.606;13.456;2023-04-29T03:15:12;22.00;54.60
11214;DHT22;5664;48.606;13.456;2023-04-29T03:17:38;22.00;54.50
11214;DHT22;5664;48.606;13.456;2023-04-29T03:20:03;22.00;54.50
11214;DHT22;5664;48.606;13.456;2023-04-29T03:22:29;22.00;54.50
11214;DHT22;5664;48.606;13.456;2023-04-29T03:24:54;22.00;54.50
11214;DHT22;5664;48.606;13.456;2023-04-29T03:27:20;22.10;54.50
11214;DHT22;5664;48.606;13.456;2023-04-29T03:29:46;22.00;54.40
11214;DHT22;5664;48.606;13.456;2023-04-29T03:32:11;22.10;54.50
11214;DHT22;5664;48.606;13.456;2023-04-29T03:34:37;22.10;54.40
11214;DHT22;5664;48.606;13.456;2023-04-29T03:37:02;22.10;54.40
11214;DHT22;5664;48.606;13.456;2023-04-29T03:39:28;22.10;54.40
11214;DHT22;5664;48.606;13.456;2023-04-29T03:41:57;22.10;54.40
11214;DHT22;5664;48.606;13.456;2023-04-29T03:44:22;22.10;54.40
11214;DHT22;5664;48.606;13.456;2023-04-29T03:46:48;22.10;54.40
11214;DHT22;5664;48.606;13.456;2023-04-29T03:49:13;22.10;54.40
11214;DHT22;5664;48.606;13.456;2023-04-29T03:51:40;22.10;54.40
11214;DHT22;5664;48.606;13.456;2023-04-29T03:54:06;22.10;54.40
11214;DHT22;5664;48.606;13.456;2023-04-29T03:56:31;22.10;54.40
11214;DHT22;5664;48.606;13.456;2023-04-29T03:58:57;22.10;54.40
11214;DHT22;5664;48.606;13.456;2023-04-29T04:01:22;22.10;54.40
11214;DHT22;5664;48.606;13.456;2023-04-29T04:03:48;22.10;54.40
11214;DHT22;5664;48.606;13.456;2023-04-29T04:06:13;21.20;54.00
11214;DHT22;5664;48.606;13.456;2023-04-29T04:08:39;22.10;54.40
11214;DHT22;5664;48.606;13.456;2023-04-29T04:11:05;22.10;54.40
11214;DHT22;5664;48.606;13.456;2023-04-29T04:13:31;22.10;55.00
11214;DHT22;5664;48.606;13.456;2023-04-29T04:15:56;22.10;54.40
11214;DHT22;5664;48.606;13.456;2023-04-29T04:18:22;22.10;54.40
11214;DHT22;5664;48.606;13.456;2023-04-29T04:20:48;22.10;54.40
11214;DHT22;5664;48.606;13.456;2023-04-29T04:23:13;22.10;54.40
11214;DHT22;5664;48.606;13.456;2023-04-29T04:25:44;22.10;54.30
11214;DHT22;5664;48.606;13.456;2023-04-29T04:28:09;22.30;54.20
11214;DHT22;5664;48.606;13.456;2023-04-29T04:30:35;22.40;53.90
11214;DHT22;5664;48.606;13.456;2023-04-29T04:33:01;22.60;53.70
11214;DHT22;5664;48.606;13.456;2023-04-29T04:35:26;22.70;53.30
11214;DHT22;5664;48.606;13.456;2023-04-29T04:37:52;22.80;53.00
11214;DHT22;5664;48.606;13.456;2023-04-29T04:40:17;23.00;52.80
11214;DHT22;5664;48.606;13.456;2023-04-29T04:42:43;23.10;52.40
11214;DHT22;5664;48.606;13.456;2023-04-29T04:45:08;23.20;52.20
11214;DHT22;5664;48.606;13.456;2023-04-29T04:47:35;23.30;52.00
11214;DHT22;5664;48.606;13.456;2023-04-29T04:50:03;23.40;51.90
11214;DHT22;5664;48.606;13.456;2023-04-29T04:52:28;23.40;51.70
11214;DHT22;5664;48.606;13.456;2023-04-29T04:54:54;23.50;51.60
11214;DHT22;5664;48.606;13.456;2023-04-29T04:57:19;23.60;51.50
11214;DHT22;5664;48.606;13.456;2023-04-29T04:59:45;23.60;51.30
11214;DHT22;5664;48.606;13.456;2023-04-29T05:02:10;23.60;51.20
11214;DHT22;5664;48.606;13.456;2023-04-29T05:04:35;23.70;51.20
11214;DHT22;5664;48.606;13.456;2023-04-29T05:07:01;23.70;51.10
11214;DHT22;5664;48.606;13.456;2023-04-29T05:09:26;23.80;51.00
11214;DHT22;5664;48.606;13.456;2023-04-29T05:11:52;23.80;51.00
11214;DHT22;5664;48.606;13.456;2023-04-29T05:14:18;23.80;50.90
11214;DHT22;5664;48.606;13.456;2023-04-29T05:16:43;23.90;50.90
11214;DHT22;5664;48.606;13.456;2023-04-29T05:19:11;23.80;50.80
11214;DHT22;5664;48.606;13.456;2023-04-29T05:21:36;23.90;50.80
11214;DHT22;5664;48.606;13.456;2023-04-29T05:24:02;23.90;50.70
11214;DHT22;5664;48.606;13.456;2023-04-29T05:26:27;23.90;50.70
11214;DHT22;5664;48.606;13.456;2023-04-29T05:28:52;23.90;50.70
11214;DHT22;5664;48.606;13.456;2023-04-29T05:31:19;23.90;50.70
11214;DHT22;5664;48.606;13.456;2023-04-29T05:33:45;23.90;50.60
11214;DHT22;5664;48.606;13.456;2023-04-29T05:36:10;24.00;50.60
11214;DHT22;5664;48.606;13.456;2023-04-29T05:38:36;24.00;50.50
11214;DHT22;5664;48.606;13.456;2023-04-29T05:41:01;24.00;50.50
11214;DHT22;5664;48.606;13.456;2023-04-29T05:43:28;24.00;50.40
11214;DHT22;5664;48.606;13.456;2023-04-29T05:45:53;24.00;50.40
11214;DHT22;5664;48.606;13.456;2023-04-29T05:48:20;24.00;51.00
11214;DHT22;5664;48.606;13.456;2023-04-29T05:50:45;24.10;50.40
11214;DHT22;5664;48.606;13.456;2023-04-29T05:53:12;24.10;50.40
11214;DHT22;5664;48.606;13.456;2023-04-29T05:55:38;24.10;50.40
11214;DHT22;5664;48.606;13.456;2023-04-29T05:58:03;24.00;50.40
11214;DHT22;5664;48.606;13.456;2023-04-29T06:00:29;24.00;50.40
11214;DHT22;5664;48.606;13.456;2023-04-29T06:02:56;24.10;50.50
11214;DHT22;5664;48.606;13.456;2023-04-29T06:05:21;24.00;50.40
11214;DHT22;5664;48.606;13.456;2023-04-29T06:07:47;24.10;50.40
11214;DHT22;5664;48.606;13.456;2023-04-29T06:10:12;24.10;50.40
11214;DHT22;5664;48.606;13.456;2023-04-29T06:12:38;24.10;50.40
11214;DHT22;5664;48.606;13.456;2023-04-29T06:15:03;24.10;50.40
11214;DHT22;5664;48.606;13.456;2023-04-29T06:17:29;24.10;50.40
11214;DHT22;5664;48.606;13.456;2023-04-29T06:19:54;24.10;50.40
11214;DHT22;5664;48.606;13.456;2023-04-29T06:22:20;24.10;50.40
11214;DHT22;5664;48.606;13.456;2023-04-29T06:24:46;24.10;50.40
11214;DHT22;5664;48.606;13.456;2023-04-29T06:27:14;24.10;50.50
11214;DHT22;5664;48.606;13.456;2023-04-29T06:29:40;24.10;50.50
11214;DHT22;5664;48.606;13.456;2023-04-29T06:32:05;24.00;50.50
11214;DHT22;5664;48.606;13.456;2023-04-29T06:34:31;24.00;50.60
11214;DHT22;5664;48.606;13.456;2023-04-29T06:36:56;24.00;50.60
11214;DHT22;5664;48.606;13.456;2023-04-29T06:39:22;24.00;50.70
11214;DHT22;5664;48.606;13.456;2023-04-29T06:41:47;24.00;50.80
11214;DHT22;5664;48.606;13.456;2023-04-29T06:44:13;23.90;50.80
11214;DHT22;5664;48.606;13.456;2023-04-29T06:46:38;23.90;50.90
11214;DHT22;5664;48.606;13.456;2023-04-29T06:49:03;23.90;50.90
11214;DHT22;5664;48.606;13.456;2023-04-29T06:51:31;23.90;51.00
11214;DHT22;5664;48.606;13.456;2023-04-29T06:53:56;23.90;51.10
11214;DHT22;5664;48.606;13.456;2023-04-29T06:56:22;23.90;51.10
11214;DHT22;5664;48.606;13.456;2023-04-29T06:58:48;23.90;51.10
11214;DHT22;5664;48.606;13.456;2023-04-29T07:01:13;23.90;51.20
11214;DHT22;5664;48.606;13.456;2023-04-29T07:03:39;23.90;51.20
11214;DHT22;5664;48.606;13.456;2023-04-29T07:06:04;23.90;51.20
11214;DHT22;5664;48.606;13.456;2023-04-29T07:08:30;23.90;51.20
11214;DHT22;5664;48.606;13.456;2023-04-29T07:10:56;23.90;51.20
11214;DHT22;5664;48.606;13.456;2023-04-29T07:13:22;23.90;51.20
11214;DHT22;5664;48.606;13.456;2023-04-29T07:15:48;23.90;51.20
11214;DHT22;5664;48.606;13.456;2023-04-29T07:18:13;23.90;51.30
11214;DHT22;5664;48.606;13.456;2023-04-29T07:20:38;23.90;51.90
11214;DHT22;5664;48.606;13.456;2023-04-29T07:23:04;23.90;51.30
11214;DHT22;5664;48.606;13.456;2023-04-29T07:25:29;23.90;51.30
11214;DHT22;5664;48.606;13.456;2023-04-29T07:27:55;23.90;51.30
11214;DHT22;5664;48.606;13.456;2023-04-29T07:30:21;23.90;51.40
11214;DHT22;5664;48.606;13.456;2023-04-29T07:32:47;23.80;51.40
11214;DHT22;5664;48.606;13.456;2023-04-29T07:35:13;23.90;51.50
11214;DHT22;5664;48.606;13.456;2023-04-29T07:37:38;23.80;51.40
11214;DHT22;5664;48.606;13.456;2023-04-29T07:40:04;23.80;51.50
11214;DHT22;5664;48.606;13.456;2023-04-29T07:42:29;23.80;51.50
11214;DHT22;5664;48.606;13.456;2023-04-29T07:44:55;23.80;51.60
11214;DHT22;5664;48.606;13.456;2023-04-29T07:47:21;23.80;51.60
11214;DHT22;5664;48.606;13.456;2023-04-29T07:49:46;23.80;51.60
11214;DHT22;5664;48.606;13.456;2023-04-29T07:52:11;23.80;51.70
11214;DHT22;5664;48.606;13.456;2023-04-29T07:54:37;23.80;51.70
11214;DHT22;5664;48.606;13.456;2023-04-29T07:57:02;23.80;51.80
11214;DHT22;5664;48.606;13.456;2023-04-29T07:59:29;23.80;51.80
11214;DHT22;5664;48.606;13.456;2023-04-29T08:01:55;23.80;51.90
11214;DHT22;5664;48.606;13.456;2023-04-29T08:04:20;23.80;51.90
11214;DHT22;5664;48.606;13.456;2023-04-29T08:06:46;23.70;51.80
11214;DHT22;5664;48.606;13.456;2023-04-29T08:09:11;23.80;52.00
11214;DHT22;5664;48.606;13.456;2023-04-29T08:11:37;23.70;52.00
11214;DHT22;5664;48.606;13.456;2023-04-29T08:14:04;23.70;52.00
11214;DHT22;5664;48.606;13.456;2023-04-29T08:16:30;23.70;52.00
11214;DHT22;5664;48.606;13.456;2023-04-29T08:18:55;23.70;52.10
11214;DHT22;5664;48.606;13.456;2023-04-29T08:21:21;23.70;52.10
11214;DHT22;5664;48.606;13.456;2023-04-29T08:23:47;23.70;52.20
11214;DHT22;5664;48.606;13.456;2023-04-29T08:26:13;23.70;52.20
11214;DHT22;5664;48.606;13.456;2023-04-29T08:28:38;23.60;52.30
11214;DHT22;5664;48.606;13.456;2023-04-29T08:31:04;23.60;52.30
11214;DHT22;5664;48.606;13.456;2023-04-29T08:33:32;23.60;52.30
11214;DHT22;5664;48.606;13.456;2023-04-29T08:35:58;23.60;52.30
11214;DHT22;5664;48.606;13.456;2023-04-29T08:38:24;23.60;52.40
11214;DHT22;5664;48.606;13.456;2023-04-29T08:40:50;23.60;52.40
11214;DHT22;5664;48.606;13.456;2023-04-29T08:43:15;23.60;52.40
11214;DHT22;5664;48.606;13.456;2023-04-29T08:45:41;23.60;52.50
11214;DHT22;5664;48.606;13.456;2023-04-29T08:48:08;23.60;52.50
11214;DHT22;5664;48.606;13.456;2023-04-29T08:50:37;23.60;52.50
11214;DHT22;5664;48.606;13.456;2023-04-29T08:53:06;23.60;52.60
11214;DHT22;5664;48.606;13.456;2023-04-29T08:55:35;23.60;52.60
11214;DHT22;5664;48.606;13.456;2023-04-29T08:58:01;23.60;52.60
11214;DHT22;5664;48.606;13.456;2023-04-29T09:00:27;23.60;52.60
11214;DHT22;5664;48.606;13.456;2023-04-29T09:02:55;23.60;52.70
11214;DHT22;5664;48.606;13.456;2023-04-29T09:05:21;23.60;52.70
11214;DHT22;5664;48.606;13.456;2023-04-29T09:07:47;23.60;52.70
11214;DHT22;5664;48.606;13.456;2023-04-29T09:10:14;23.60;52.80
11214;DHT22;5664;48.606;13.456;2023-04-29T09:12:40;23.60;52.80
11214;DHT22;5664;48.606;13.456;2023-04-29T09:15:05;23.60;52.80
11214;DHT22;5664;48.606;13.456;2023-04-29T09:17:44;23.60;52.80
11214;DHT22;5664;48.606;13.456;2023-04-29T09:22:48;23.60;53.00
11214;DHT22;5664;48.606;13.456;2023-04-29T09:25:13;23.60;52.90
11214;DHT22;5664;48.606;13.456;2023-04-29T09:27:39;23.60;53.00
11214;DHT22;5664;48.606;13.456;2023-04-29T09:30:05;23.60;53.00
11214;DHT22;5664;48.606;13.456;2023-04-29T09:32:30;23.60;53.00
11214;DHT22;5664;48.606;13.456;2023-04-29T09:34:56;23.60;53.00
11214;DHT22;5664;48.606;13.456;2023-04-29T09:37:25;23.60;53.00
11214;DHT22;5664;48.606;13.456;2023-04-29T09:39:52;23.60;53.00
11214;DHT22;5664;48.606;13.456;2023-04-29T09:42:18;23.60;53.10
11214;DHT22;5664;48.606;13.456;2023-04-29T09:44:43;23.60;53.10
11214;DHT22;5664;48.606;13.456;2023-04-29T09:47:09;23.60;53.10
11214;DHT22;5664;48.606;13.456;2023-04-29T09:49:36;23.60;53.20
11214;DHT22;5664;48.606;13.456;2023-04-29T09:52:06;23.60;53.20
11214;DHT22;5664;48.606;13.456;2023-04-29T09:54:32;23.60;53.20
11214;DHT22;5664;48.606;13.456;2023-04-29T09:56:59;23.60;53.30
11214;DHT22;5664;48.606;13.456;2023-04-29T09:59:24;23.50;53.30
11214;DHT22;5664;48.606;13.456;2023-04-29T10:01:51;23.50;53.50
11214;DHT22;5664;48.606;13.456;2023-04-29T10:04:17;23.40;53.70
11214;DHT22;5664;48.606;13.456;2023-04-29T10:06:44;23.30;54.00
11214;DHT22;5664;48.606;13.456;2023-04-29T10:09:12;23.10;54.20
11214;DHT22;5664;48.606;13.456;2023-04-29T10:11:40;23.00;54.50
11214;DHT22;5664;48.606;13.456;2023-04-29T10:14:06;22.80;54.70
11214;DHT22;5664;48.606;13.456;2023-04-29T10:16:33;22.70;55.00
11214;DHT22;5664;48.606;13.456;2023-04-29T10:19:03;22.60;55.30
11214;DHT22;5664;48.606;13.456;2023-04-29T10:21:31;22.40;55.60
11214;DHT22;5664;48.606;13.456;2023-04-29T10:23:57;22.30;55.90
11214;DHT22;5664;48.606;13.456;2023-04-29T10:26:25;22.20;56.10
11214;DHT22;5664;48.606;13.456;2023-04-29T10:28:51;22.00;56.40
11214;DHT22;5664;48.606;13.456;2023-04-29T10:31:18;21.90;56.70
11214;DHT22;5664;48.606;13.456;2023-04-29T10:33:44;21.80;57.00
11214;DHT22;5664;48.606;13.456;2023-04-29T10:36:10;21.70;57.30
11214;DHT22;5664;48.606;13.456;2023-04-29T10:38:39;21.50;57.50
11214;DHT22;5664;48.606;13.456;2023-04-29T10:43:57;21.40;58.00
11214;DHT22;5664;48.606;13.456;2023-04-29T10:46:26;21.20;58.90
11214;DHT22;5664;48.606;13.456;2023-04-29T10:49:10;21.10;58.50
11214;DHT22;5664;48.606;13.456;2023-04-29T10:51:39;21.00;58.70
11214;DHT22;5664;48.606;13.456;2023-04-29T10:54:11;20.90;59.00
11214;DHT22;5664;48.606;13.456;2023-04-29T10:59:09;20.80;59.40
11214;DHT22;5664;48.606;13.456;2023-04-29T11:01:42;20.70;59.60
11214;DHT22;5664;48.606;13.456;2023-04-29T11:04:07;20.60;59.80
11214;DHT22;5664;48.606;13.456;2023-04-29T11:09:03;20.50;60.30
11214;DHT22;5664;48.606;13.456;2023-04-29T11:14:07;20.40;60.80
11214;DHT22;5664;48.606;13.456;2023-04-29T11:16:34;20.30;61.10
11214;DHT22;5664;48.606;13.456;2023-04-29T11:19:05;20.30;61.10
11214;DHT22;5664;48.606;13.456;2023-04-29T11:21:34;20.20;61.30
11214;DHT22;5664;48.606;13.456;2023-04-29T11:24:00;20.20;61.60
11214;DHT22;5664;48.606;13.456;2023-04-29T11:26:27;20.10;61.80
11214;DHT22;5664;48.606;13.456;2023-04-29T11:28:53;20.10;62.00
11214;DHT22;5664;48.606;13.456;2023-04-29T11:31:18;20.00;62.10
11214;DHT22;5664;48.606;13.456;2023-04-29T11:33:45;20.00;62.20
11214;DHT22;5664;48.606;13.456;2023-04-29T11:36:11;20.00;62.40
11214;DHT22;5664;48.606;13.456;2023-04-29T11:38:38;19.90;62.50
11214;DHT22;5664;48.606;13.456;2023-04-29T11:41:04;19.90;62.70
11214;DHT22;5664;48.606;13.456;2023-04-29T11:43:29;19.90;62.90
11214;DHT22;5664;48.606;13.456;2023-04-29T11:45:55;19.80;63.10
11214;DHT22;5664;48.606;13.456;2023-04-29T11:48:24;19.80;63.20
11214;DHT22;5664;48.606;13.456;2023-04-29T11:50:51;19.80;63.30
11214;DHT22;5664;48.606;13.456;2023-04-29T11:53:21;19.70;63.40
11214;DHT22;5664;48.606;13.456;2023-04-29T11:55:46;20.70;64.30
11214;DHT22;5664;48.606;13.456;2023-04-29T11:58:15;19.70;63.80
11214;DHT22;5664;48.606;13.456;2023-04-29T12:00:41;19.70;63.90
11214;DHT22;5664;48.606;13.456;2023-04-29T12:03:11;19.60;63.90
11214;DHT22;5664;48.606;13.456;2023-04-29T12:05:37;19.60;64.80
11214;DHT22;5664;48.606;13.456;2023-04-29T12:08:02;19.60;64.10
11214;DHT22;5664;48.606;13.456;2023-04-29T12:10:28;19.60;64.20
11214;DHT22;5664;48.606;13.456;2023-04-29T12:12:54;19.50;64.30
11214;DHT22;5664;48.606;13.456;2023-04-29T12:15:19;19.50;64.40
11214;DHT22;5664;48.606;13.456;2023-04-29T12:17:45;19.50;64.50
11214;DHT22;5664;48.606;13.456;2023-04-29T12:20:11;19.50;64.60
11214;DHT22;5664;48.606;13.456;2023-04-29T12:22:36;19.50;64.70
11214;DHT22;5664;48.606;13.456;2023-04-29T12:25:02;19.50;64.80
11214;DHT22;5664;48.606;13.456;2023-04-29T12:27:28;19.40;64.80
11214;DHT22;5664;48.606;13.456;2023-04-29T12:29:55;19.40;64.90
11214;DHT22;5664;48.606;13.456;2023-04-29T12:32:21;19.40;65.00
11214;DHT22;5664;48.606;13.456;2023-04-29T12:34:49;19.40;65.00
11214;DHT22;5664;48.606;13.456;2023-04-29T12:37:14;19.40;65.20
11214;DHT22;5664;48.606;13.456;2023-04-29T12:39:41;19.40;65.20
11214;DHT22;5664;48.606;13.456;2023-04-29T12:42:06;19.30;65.20
11214;DHT22;5664;48.606;13.456;2023-04-29T12:44:38;19.30;65.20
11214;DHT22;5664;48.606;13.456;2023-04-29T12:47:06;19.30;65.30
11214;DHT22;5664;48.606;13.456;2023-04-29T12:49:32;19.30;65.30
11214;DHT22;5664;48.606;13.456;2023-04-29T12:51:58;19.30;65.40
11214;DHT22;5664;48.606;13.456;2023-04-29T12:54:23;19.30;65.40
11214;DHT22;5664;48.606;13.456;2023-04-29T12:56:49;19.30;65.50
11214;DHT22;5664;48.606;13.456;2023-04-29T12:59:14;19.30;65.50
11214;DHT22;5664;48.606;13.456;2023-04-29T13:01:41;19.20;65.50
11214;DHT22;5664;48.606;13.456;2023-04-29T13:04:06;19.20;65.60
11214;DHT22;5664;48.606;13.456;2023-04-29T13:06:33;19.20;65.60
11214;DHT22;5664;48.606;13.456;2023-04-29T13:08:58;19.20;65.70
11214;DHT22;5664;48.606;13.456;2023-04-29T13:11:24;19.20;65.70
11214;DHT22;5664;48.606;13.456;2023-04-29T13:13:50;19.20;65.80
11214;DHT22;5664;48.606;13.456;2023-04-29T13:16:15;19.20;65.80
11214;DHT22;5664;48.606;13.456;2023-04-29T13:18:41;19.10;66.60
11214;DHT22;5664;48.606;13.456;2023-04-29T13:21:07;19.20;65.90
11214;DHT22;5664;48.606;13.456;2023-04-29T13:23:32;19.10;65.90
11214;DHT22;5664;48.606;13.456;2023-04-29T13:25:58;19.10;65.90
11214;DHT22;5664;48.606;13.456;2023-04-29T13:28:23;19.10;66.00
11214;DHT22;5664;48.606;13.456;2023-04-29T13:30:48;19.10;66.10
11214;DHT22;5664;48.606;13.456;2023-04-29T13:33:15;19.10;66.10
11214;DHT22;5664;48.606;13.456;2023-04-29T13:35:40;19.10;66.10
11214;DHT22;5664;48.606;13.456;2023-04-29T13:38:08;19.10;66.20
11214;DHT22;5664;48.606;13.456;2023-04-29T13:40:34;19.10;66.20
11214;DHT22;5664;48.606;13.456;2023-04-29T13:43:00;19.10;66.20
11214;DHT22;5664;48.606;13.456;2023-04-29T13:45:25;19.10;66.20
11214;DHT22;5664;48.606;13.456;2023-04-29T13:47:50;19.10;66.30
11214;DHT22;5664;48.606;13.456;2023-04-29T13:50:16;19.10;66.40
11214;DHT22;5664;48.606;13.456;2023-04-29T13:52:41;19.10;66.50
11214;DHT22;5664;48.606;13.456;2023-04-29T13:55:07;19.10;66.50
11214;DHT22;5664;48.606;13.456;2023-04-29T13:57:32;19.00;66.40
11214;DHT22;5664;48.606;13.456;2023-04-29T13:59:58;19.00;66.40
11214;DHT22;5664;48.606;13.456;2023-04-29T14:02:23;19.00;66.40
11214;DHT22;5664;48.606;13.456;2023-04-29T14:04:49;19.00;66.50
11214;DHT22;5664;48.606;13.456;2023-04-29T14:07:15;19.00;66.50
11214;DHT22;5664;48.606;13.456;2023-04-29T14:09:41;19.00;66.60
11214;DHT22;5664;48.606;13.456;2023-04-29T14:12:06;19.00;66.60
11214;DHT22;5664;48.606;13.456;2023-04-29T14:14:32;19.00;66.60
11214;DHT22;5664;48.606;13.456;2023-04-29T14:16:57;19.00;66.70
11214;DHT22;5664;48.606;13.456;2023-04-29T14:19:23;19.00;66.70
11214;DHT22;5664;48.606;13.456;2023-04-29T14:21:49;19.00;66.70
11214;DHT22;5664;48.606;13.456;2023-04-29T14:24:14;19.00;66.80
11214;DHT22;5664;48.606;13.456;2023-04-29T14:26:40;19.00;67.60
11214;DHT22;5664;48.606;13.456;2023-04-29T14:29:06;19.00;66.80
11214;DHT22;5664;48.606;13.456;2023-04-29T14:31:34;19.00;66.80
11214;DHT22;5664;48.606;13.456;2023-04-29T14:34:03;19.00;66.80
11214;DHT22;5664;48.606;13.456;2023-04-29T14:36:28;19.00;66.90
11214;DHT22;5664;48.606;13.456;2023-04-29T14:38:54;18.90;66.70
11214;DHT22;5664;48.606;13.456;2023-04-29T14:41:19;19.00;66.80
11214;DHT22;5664;48.606;13.456;2023-04-29T14:43:48;18.90;66.80
11214;DHT22;5664;48.606;13.456;2023-04-29T14:46:13;18.90;66.80
11214;DHT22;5664;48.606;13.456;2023-04-29T14:48:39;18.90;66.90
11214;DHT22;5664;48.606;13.456;2023-04-29T14:51:04;18.90;66.90
11214;DHT22;5664;48.606;13.456;2023-04-29T14:53:30;18.90;67.00
11214;DHT22;5664;48.606;13.456;2023-04-29T14:55:56;18.90;67.00
11214;DHT22;5664;48.606;13.456;2023-04-29T14:58:21;18.90;67.00
11214;DHT22;5664;48.606;13.456;2023-04-29T15:00:47;18.90;67.00
11214;DHT22;5664;48.606;13.456;2023-04-29T15:03:13;18.90;67.00
11214;DHT22;5664;48.606;13.456;2023-04-29T15:05:38;18.90;67.00
11214;DHT22;5664;48.606;13.456;2023-04-29T15:08:04;18.90;67.00
11214;DHT22;5664;48.606;13.456;2023-04-29T15:10:29;18.90;67.10
11214;DHT22;5664;48.606;13.456;2023-04-29T15:12:55;18.90;67.10
11214;DHT22;5664;48.606;13.456;2023-04-29T15:15:21;18.90;67.10
11214;DHT22;5664;48.606;13.456;2023-04-29T15:17:47;18.90;67.20
11214;DHT22;5664;48.606;13.456;2023-04-29T15:20:12;18.90;67.20
11214;DHT22;5664;48.606;13.456;2023-04-29T15:22:38;18.90;67.20
11214;DHT22;5664;48.606;13.456;2023-04-29T15:25:04;18.80;67.20
11214;DHT22;5664;48.606;13.456;2023-04-29T15:27:30;18.90;67.20
11214;DHT22;5664;48.606;13.456;2023-04-29T15:29:55;18.80;67.20
11214;DHT22;5664;48.606;13.456;2023-04-29T15:32:22;18.80;67.20
11214;DHT22;5664;48.606;13.456;2023-04-29T15:34:48;18.80;67.20
11214;DHT22;5664;48.606;13.456;2023-04-29T15:37:14;18.80;67.30
11214;DHT22;5664;48.606;13.456;2023-04-29T15:39:39;18.80;67.30
11214;DHT22;5664;48.606;13.456;2023-04-29T15:42:05;18.80;68.10